createdAt,value
2022-11-10T00:02:01.895Z,14.30
2022-11-10T00:04:33.708Z,14.40
2022-11-10T00:07:05.688Z,14.10
2022-11-10T00:09:37.618Z,13.60
2022-11-10T00:12:09.811Z,14.10
2022-11-10T00:14:59.447Z,13.50
2022-11-10T00:17:31.159Z,13.80
2022-11-10T00:20:02.917Z,14.80
2022-11-10T00:22:35.754Z,15.80
2022-11-10T00:25:08.824Z,15.20
2022-11-10T00:27:40.664Z,15.20
2022-11-10T00:30:14.145Z,15.00
2022-11-10T00:32:49.375Z,15.10
2022-11-10T00:35:21.604Z,14.70
2022-11-10T00:37:53.586Z,15.50
2022-11-10T00:40:25.295Z,14.00
2022-11-10T00:42:57.017Z,14.10
2022-11-10T00:45:28.686Z,13.60
2022-11-10T00:48:00.306Z,15.10
2022-11-10T00:50:32.028Z,13.40
2022-11-10T00:53:05.465Z,13.10
2022-11-10T00:55:39.927Z,13.60
2022-11-10T00:58:11.834Z,13.80
2022-11-10T01:00:43.681Z,14.10
2022-11-10T01:03:18.619Z,14.10
2022-11-10T01:05:50.418Z,15.00
2022-11-10T01:08:22.082Z,14.70
2022-11-10T01:10:53.751Z,14.70
2022-11-10T01:13:25.538Z,14.50
2022-11-10T01:15:57.393Z,14.50
2022-11-10T01:18:29.103Z,13.90
2022-11-10T01:21:00.766Z,14.80
2022-11-10T01:23:33.077Z,15.40
2022-11-10T01:26:07.887Z,16.30
2022-11-10T01:28:40.170Z,14.30
2022-11-10T01:31:14.876Z,14.70
2022-11-10T01:33:47.063Z,14.20
2022-11-10T01:36:19.078Z,16.00
2022-11-10T01:38:50.765Z,16.80
2022-11-10T01:41:22.477Z,16.20
2022-11-10T01:43:54.141Z,15.50
2022-11-10T01:46:26.342Z,16.30
2022-11-10T01:49:02.002Z,15.20
2022-11-10T01:51:40.975Z,16.10
2022-11-10T01:54:16.852Z,16.00
2022-11-10T01:56:51.570Z,15.70
2022-11-10T01:59:28.672Z,15.60
2022-11-10T02:02:08.179Z,15.70
2022-11-10T02:04:41.101Z,15.60
2022-11-10T02:07:13.996Z,15.30
2022-11-10T02:09:45.788Z,15.30
2022-11-10T02:12:37.743Z,16.50
2022-11-10T02:15:13.814Z,16.70
2022-11-10T02:17:47.771Z,15.80
2022-11-10T02:20:23.111Z,15.90
2022-11-10T02:22:54.731Z,15.30
2022-11-10T02:25:31.393Z,17.30
2022-11-10T02:28:03.655Z,16.50
2022-11-10T02:30:35.337Z,16.20
2022-11-10T02:33:07.010Z,16.80
2022-11-10T02:35:38.708Z,17.40
2022-11-10T02:38:10.379Z,17.00
2022-11-10T02:40:42.671Z,16.70
2022-11-10T02:43:15.706Z,18.00
2022-11-10T02:45:47.495Z,16.60
2022-11-10T02:48:20.687Z,16.20
2022-11-10T02:50:52.367Z,16.00
2022-11-10T02:53:24.328Z,17.90
2022-11-10T02:55:56.392Z,18.30
2022-11-10T02:58:28.096Z,18.20
2022-11-10T03:00:59.823Z,17.60
2022-11-10T03:03:31.578Z,17.70
2022-11-10T03:06:03.370Z,17.70
2022-11-10T03:08:35.311Z,18.00
2022-11-10T03:11:07.138Z,18.40
2022-11-10T03:13:59.912Z,19.20
2022-11-10T03:16:30.539Z,17.20
2022-11-10T03:19:02.413Z,18.40
2022-11-10T03:21:34.018Z,18.50
2022-11-10T03:24:06.395Z,18.30
2022-11-10T03:26:38.031Z,17.70
2022-11-10T03:29:09.934Z,17.20
2022-11-10T03:31:41.864Z,16.50
2022-11-10T03:34:13.834Z,17.70
2022-11-10T03:36:45.910Z,19.90
2022-11-10T03:39:17.533Z,16.70
2022-11-10T03:41:49.835Z,18.10
2022-11-10T03:44:21.604Z,19.20
2022-11-10T03:46:53.286Z,18.50
2022-11-10T03:49:25.036Z,17.60
2022-11-10T03:51:56.851Z,18.40
2022-11-10T03:54:28.522Z,16.80
2022-11-10T03:57:00.198Z,18.20
2022-11-10T03:59:32.414Z,19.90
2022-11-10T04:02:04.131Z,19.30
2022-11-10T04:04:53.910Z,17.40
2022-11-10T04:07:43.125Z,17.90
2022-11-10T04:10:15.239Z,16.40
2022-11-10T04:13:04.631Z,16.00
2022-11-10T04:15:45.941Z,18.90
2022-11-10T04:18:29.807Z,18.90
2022-11-10T04:21:04.295Z,18.20
2022-11-10T04:23:36.290Z,18.10
2022-11-10T04:26:29.891Z,18.40
2022-11-10T04:29:03.826Z,18.60
2022-11-10T04:31:37.517Z,18.60
2022-11-10T04:36:42.274Z,18.10
2022-11-10T04:39:14.127Z,17.70
2022-11-10T04:41:45.773Z,18.90
2022-11-10T04:44:17.427Z,18.70
2022-11-10T04:46:49.634Z,19.20
2022-11-10T04:49:21.470Z,19.20
2022-11-10T04:51:53.263Z,18.40
2022-11-10T04:54:25.397Z,18.40
2022-11-10T04:56:57.195Z,17.00
2022-11-10T04:59:28.870Z,19.60
2022-11-10T05:02:00.858Z,20.20
2022-11-10T05:04:32.782Z,18.50
2022-11-10T05:07:04.504Z,19.20
2022-11-10T05:09:36.105Z,18.90
2022-11-10T05:12:08.246Z,19.40
2022-11-10T05:14:39.968Z,20.10
2022-11-10T05:17:11.710Z,20.10
2022-11-10T05:19:43.546Z,18.00
2022-11-10T05:22:15.458Z,20.50
2022-11-10T05:24:47.146Z,18.90
2022-11-10T05:27:18.952Z,19.40
2022-11-10T05:29:50.675Z,19.60
2022-11-10T05:32:22.463Z,18.50
2022-11-10T05:34:54.293Z,19.10
2022-11-10T05:37:25.955Z,20.20
2022-11-10T05:39:57.810Z,19.60
2022-11-10T05:42:29.594Z,20.80
2022-11-10T05:45:01.369Z,19.90
2022-11-10T05:47:36.890Z,18.80
2022-11-10T05:50:10.890Z,20.00
2022-11-10T05:52:50.144Z,20.50
2022-11-10T05:55:24.791Z,20.50
2022-11-10T05:57:57.532Z,19.80
2022-11-10T06:00:31.429Z,19.60
2022-11-10T06:03:05.548Z,18.40
2022-11-10T06:05:38.356Z,18.90
2022-11-10T06:08:10.642Z,18.50
2022-11-10T06:10:42.974Z,19.30
2022-11-10T06:13:14.589Z,19.20
2022-11-10T06:15:50.337Z,19.50
2022-11-10T06:18:22.855Z,21.70
2022-11-10T06:20:54.525Z,21.40
2022-11-10T06:23:26.195Z,19.80
2022-11-10T06:25:58.059Z,19.70
2022-11-10T06:28:29.683Z,19.80
2022-11-10T06:31:01.443Z,20.20
2022-11-10T06:33:33.064Z,19.70
2022-11-10T06:36:04.964Z,21.40
2022-11-10T06:38:36.670Z,19.80
2022-11-10T06:41:08.471Z,18.50
2022-11-10T06:43:40.385Z,19.50
2022-11-10T06:46:13.184Z,19.10
2022-11-10T06:48:44.833Z,21.40
2022-11-10T06:51:16.557Z,21.60
2022-11-10T06:53:48.717Z,21.10
2022-11-10T06:56:20.484Z,21.70
2022-11-10T06:58:52.171Z,22.30
2022-11-10T07:01:26.520Z,20.50
2022-11-10T07:04:18.714Z,21.20
2022-11-10T07:06:50.281Z,20.30
2022-11-10T07:09:22.325Z,20.40
2022-11-10T07:11:53.901Z,24.90
2022-11-10T07:14:25.639Z,18.60
2022-11-10T07:16:57.399Z,18.20
2022-11-10T07:19:32.937Z,18.70
2022-11-10T07:22:09.742Z,19.00
2022-11-10T07:24:43.755Z,19.30
2022-11-10T07:27:15.511Z,19.70
2022-11-10T07:29:47.204Z,19.20
2022-11-10T07:32:19.011Z,20.20
2022-11-10T07:34:50.767Z,19.80
2022-11-10T07:37:22.502Z,18.50
2022-11-10T07:39:54.285Z,19.60
2022-11-10T07:42:25.957Z,19.40
2022-11-10T07:44:57.666Z,18.60
2022-11-10T07:47:29.447Z,19.80
2022-11-10T07:50:01.127Z,19.10
2022-11-10T07:52:32.906Z,19.40
2022-11-10T07:55:04.927Z,20.20
2022-11-10T07:57:36.900Z,21.40
2022-11-10T08:00:12.521Z,20.10
2022-11-10T08:02:44.185Z,19.80
2022-11-10T08:05:15.982Z,20.00
2022-11-10T08:07:47.862Z,21.40
2022-11-10T08:10:20.922Z,20.30
2022-11-10T08:12:58.170Z,21.50
2022-11-10T08:15:31.763Z,19.60
2022-11-10T08:18:05.816Z,20.00
2022-11-10T08:20:37.566Z,18.60
2022-11-10T08:23:10.284Z,20.90
2022-11-10T08:25:42.209Z,19.90
2022-11-10T08:28:18.290Z,20.70
2022-11-10T08:30:50.582Z,20.40
2022-11-10T08:33:24.374Z,20.50
2022-11-10T08:35:56.279Z,19.10
2022-11-10T08:38:28.019Z,19.60
2022-11-10T08:41:00.043Z,19.80
2022-11-10T08:43:31.746Z,20.30
2022-11-10T08:46:03.474Z,19.60
2022-11-10T08:48:35.296Z,20.20
2022-11-10T08:51:07.238Z,21.50
2022-11-10T08:53:39.676Z,21.30
2022-11-10T08:56:11.813Z,21.50
2022-11-10T08:58:52.862Z,22.60
2022-11-10T09:01:24.962Z,20.80
2022-11-10T09:03:56.875Z,20.90
2022-11-10T09:06:28.582Z,21.00
2022-11-10T09:09:00.289Z,23.40
2022-11-10T09:11:32.699Z,21.40
2022-11-10T09:14:04.302Z,22.30
2022-11-10T09:16:35.969Z,22.60
2022-11-10T09:19:07.680Z,24.00
2022-11-10T09:21:39.511Z,24.50
2022-11-10T09:24:11.960Z,24.90
2022-11-10T09:26:48.033Z,24.30
2022-11-10T09:29:20.249Z,25.00
2022-11-10T09:31:51.954Z,23.90
2022-11-10T09:34:23.703Z,26.60
2022-11-10T09:36:55.431Z,24.70
2022-11-10T09:39:27.560Z,23.90
2022-11-10T09:41:59.359Z,23.90
2022-11-10T09:44:37.910Z,22.70
2022-11-10T09:47:18.903Z,22.60
2022-11-10T09:50:04.369Z,23.00
2022-11-10T09:52:39.024Z,22.30
2022-11-10T09:55:37.294Z,21.60
2022-11-10T09:58:10.514Z,20.90
2022-11-10T10:00:50.177Z,22.70
2022-11-10T10:03:30.047Z,23.40
2022-11-10T10:06:11.040Z,23.70
2022-11-10T10:08:55.551Z,21.00
2022-11-10T10:11:55.669Z,19.80
2022-11-10T10:14:57.601Z,18.20
2022-11-10T10:17:41.362Z,20.40
2022-11-10T10:20:19.735Z,21.60
2022-11-10T10:23:04.159Z,19.40
2022-11-10T10:25:39.819Z,20.20
2022-11-10T10:28:21.927Z,19.10
2022-11-10T10:30:53.958Z,18.50
2022-11-10T10:33:25.643Z,18.10
2022-11-10T10:36:08.366Z,18.70
2022-11-10T10:38:45.394Z,15.70
2022-11-10T10:41:24.232Z,15.30
2022-11-10T10:44:00.210Z,17.00
2022-11-10T10:46:35.748Z,17.00
2022-11-10T10:49:32.746Z,17.30
2022-11-10T10:52:12.445Z,15.40
2022-11-10T10:54:44.802Z,14.80
2022-11-10T10:57:25.486Z,14.70
2022-11-10T11:00:22.875Z,14.20
2022-11-10T11:03:06.193Z,14.70
2022-11-10T11:05:37.934Z,15.20
2022-11-10T11:08:20.634Z,14.90
2022-11-10T11:10:52.455Z,14.00
2022-11-10T11:13:26.549Z,13.20
2022-11-10T11:16:02.594Z,13.70
2022-11-10T11:18:35.329Z,13.90
2022-11-10T11:21:19.473Z,14.10
2022-11-10T11:24:12.066Z,13.20
2022-11-10T11:26:54.332Z,15.00
2022-11-10T11:29:42.681Z,14.40
2022-11-10T11:32:54.092Z,14.30
2022-11-10T11:35:33.975Z,14.90
2022-11-10T11:38:12.243Z,13.70
2022-11-10T11:40:50.498Z,14.20
2022-11-10T11:43:38.820Z,15.80
2022-11-10T11:46:19.938Z,14.40
2022-11-10T11:49:07.686Z,14.40
2022-11-10T11:51:49.675Z,13.80
2022-11-10T11:54:39.399Z,13.50
2022-11-10T11:57:28.396Z,12.10
2022-11-10T12:00:10.359Z,12.20
2022-11-10T12:03:10.324Z,13.90
2022-11-10T12:05:53.509Z,13.70
2022-11-10T12:08:36.858Z,13.60
2022-11-10T12:11:16.951Z,12.80
2022-11-10T12:14:01.134Z,12.00
2022-11-10T12:16:36.024Z,11.90
2022-11-10T12:19:16.897Z,11.70
2022-11-10T12:21:53.558Z,12.00
2022-11-10T12:24:42.558Z,11.70
2022-11-10T12:27:19.605Z,11.60
2022-11-10T12:29:56.977Z,12.10
2022-11-10T12:32:33.662Z,11.90
2022-11-10T12:35:14.148Z,12.00
2022-11-10T12:37:50.303Z,12.30
2022-11-10T12:40:26.051Z,13.30
2022-11-10T12:43:01.011Z,13.80
2022-11-10T12:45:37.844Z,11.70
2022-11-10T12:48:13.149Z,12.20
2022-11-10T12:50:54.711Z,11.30
2022-11-10T12:53:30.722Z,12.40
2022-11-10T12:56:13.706Z,11.70
2022-11-10T12:58:45.369Z,11.10
2022-11-10T13:01:21.223Z,10.40
2022-11-10T13:03:59.705Z,11.80
2022-11-10T13:06:35.803Z,10.30
2022-11-10T13:09:22.220Z,10.60
2022-11-10T13:12:16.682Z,9.00
2022-11-10T13:14:50.258Z,9.10
2022-11-10T13:17:55.843Z,8.80
2022-11-10T13:20:49.463Z,8.30
2022-11-10T13:23:30.018Z,8.80
2022-11-10T13:26:03.515Z,7.80
2022-11-10T13:28:58.657Z,7.30
2022-11-10T13:31:51.335Z,6.30
2022-11-10T13:34:37.792Z,6.10
2022-11-10T13:37:46.457Z,6.10
2022-11-10T13:40:31.177Z,5.60
2022-11-10T13:43:25.978Z,5.10
2022-11-10T13:46:08.532Z,5.30
2022-11-10T13:48:56.053Z,5.40
2022-11-10T13:51:43.952Z,5.10
2022-11-10T13:54:43.843Z,4.50
2022-11-10T13:57:30.403Z,5.60
2022-11-10T14:00:23.873Z,4.70
2022-11-10T14:02:58.204Z,5.60
2022-11-10T14:06:01.478Z,5.40
2022-11-10T14:08:41.150Z,5.80
2022-11-10T14:11:30.589Z,6.30
2022-11-10T14:14:15.752Z,6.10
2022-11-10T14:16:47.553Z,7.20
2022-11-10T14:19:39.295Z,6.70
2022-11-10T14:22:21.862Z,7.80
2022-11-10T14:25:01.906Z,6.20
2022-11-10T14:27:35.984Z,7.10
2022-11-10T14:30:24.484Z,7.10
2022-11-10T14:33:01.274Z,6.40
2022-11-10T14:35:37.729Z,6.20
2022-11-10T14:38:20.616Z,5.90
2022-11-10T14:40:55.140Z,6.10
2022-11-10T14:43:32.221Z,7.10
2022-11-10T14:46:05.931Z,6.40
2022-11-10T14:51:14.441Z,6.40
2022-11-10T14:53:52.192Z,6.80
2022-11-10T14:56:27.031Z,7.10
2022-11-10T14:59:02.345Z,6.80
2022-11-10T15:01:38.807Z,6.80
2022-11-10T15:04:13.075Z,6.30
2022-11-10T15:06:47.301Z,6.60
2022-11-10T15:09:24.624Z,6.70
2022-11-10T15:12:07.562Z,6.90
2022-11-10T15:14:45.547Z,6.60
2022-11-10T15:17:20.330Z,6.90
2022-11-10T15:19:58.336Z,6.60
2022-11-10T15:22:35.619Z,7.30
2022-11-10T15:25:16.329Z,7.80
2022-11-10T15:28:00.771Z,7.70
2022-11-10T15:30:32.889Z,7.70
2022-11-10T15:33:14.611Z,8.60
2022-11-10T15:35:46.286Z,8.60
2022-11-10T15:38:33.291Z,9.90
2022-11-10T15:41:27.051Z,9.30
2022-11-10T15:44:11.879Z,10.50
2022-11-10T15:46:43.868Z,11.50
2022-11-10T15:49:21.924Z,14.20
2022-11-10T15:51:57.780Z,13.90
2022-11-10T15:54:36.295Z,15.50
2022-11-10T15:57:13.484Z,20.00
2022-11-10T15:59:45.931Z,23.50
2022-11-10T16:02:27.149Z,23.80
2022-11-10T16:05:00.128Z,19.60
2022-11-10T16:07:32.042Z,20.60
2022-11-10T16:10:03.682Z,22.20
2022-11-10T16:12:36.558Z,18.50
2022-11-10T16:15:13.151Z,25.30
2022-11-10T16:17:44.817Z,29.60
2022-11-10T16:20:17.423Z,29.00
2022-11-10T16:22:49.074Z,30.80
2022-11-10T16:25:26.630Z,35.10
2022-11-10T16:28:02.582Z,34.90
2022-11-10T16:30:35.242Z,40.20
2022-11-10T16:33:06.987Z,40.00
2022-11-10T16:35:38.941Z,31.40
2022-11-10T16:38:20.389Z,27.90
2022-11-10T16:40:56.665Z,24.50
2022-11-10T16:43:30.635Z,22.50
2022-11-10T16:46:07.519Z,23.20
2022-11-10T16:48:39.665Z,18.60
2022-11-10T16:51:11.548Z,19.70
2022-11-10T16:53:45.634Z,20.10
2022-11-10T16:56:20.633Z,17.40
2022-11-10T16:58:52.331Z,19.40
2022-11-10T17:01:29.172Z,18.70
2022-11-10T17:04:06.986Z,18.30
2022-11-10T17:06:38.941Z,18.60
2022-11-10T17:09:15.515Z,17.20
2022-11-10T17:11:47.244Z,18.30
2022-11-10T17:14:19.023Z,17.50
2022-11-10T17:16:50.792Z,17.70
2022-11-10T17:19:26.839Z,17.00
2022-11-10T17:21:58.578Z,16.70
2022-11-10T17:24:30.303Z,16.90
2022-11-10T17:27:02.173Z,16.10
2022-11-10T17:29:33.910Z,17.00
2022-11-10T17:32:06.234Z,19.40
2022-11-10T17:34:38.059Z,24.40
2022-11-10T17:37:13.934Z,29.60
2022-11-10T17:39:45.547Z,32.50
2022-11-10T17:42:17.210Z,34.80
2022-11-10T17:44:48.809Z,38.30
2022-11-10T17:47:20.444Z,44.90
2022-11-10T17:49:52.150Z,44.20
2022-11-10T17:52:23.907Z,43.30
2022-11-10T17:54:55.597Z,42.90
2022-11-10T17:57:27.312Z,45.40
2022-11-10T17:59:58.953Z,49.90
2022-11-10T18:02:30.989Z,47.90
2022-11-10T18:05:02.671Z,47.70
2022-11-10T18:07:36.126Z,47.60
2022-11-10T18:10:12.364Z,48.10
2022-11-10T18:12:44.022Z,44.10
2022-11-10T18:15:17.820Z,41.70
2022-11-10T18:17:49.754Z,39.20
2022-11-10T18:20:21.565Z,42.40
2022-11-10T18:22:53.216Z,40.40
2022-11-10T18:25:24.860Z,39.30
2022-11-10T18:27:56.775Z,36.70
2022-11-10T18:30:33.786Z,33.40
2022-11-10T18:33:08.593Z,32.20
2022-11-10T18:35:41.677Z,32.70
2022-11-10T18:38:14.555Z,34.10
2022-11-10T18:40:46.154Z,32.70
2022-11-10T18:43:17.980Z,31.60
2022-11-10T18:45:53.051Z,30.00
2022-11-10T18:48:30.132Z,30.30
2022-11-10T18:51:08.581Z,29.10
2022-11-10T18:53:40.572Z,28.00
2022-11-10T18:56:12.442Z,26.40
2022-11-10T18:58:44.576Z,25.30
2022-11-10T19:01:16.806Z,25.40
2022-11-10T19:03:48.629Z,24.90
2022-11-10T19:06:20.796Z,26.30
2022-11-10T19:08:52.577Z,27.50
2022-11-10T19:11:24.196Z,26.30
2022-11-10T19:13:55.982Z,26.90
2022-11-10T19:16:27.655Z,29.00
2022-11-10T19:18:59.706Z,30.60
2022-11-10T19:21:31.346Z,30.70
2022-11-10T19:24:02.981Z,31.40
2022-11-10T19:26:34.765Z,33.00
2022-11-10T19:29:07.413Z,34.60
2022-11-10T19:31:39.306Z,36.30
2022-11-10T19:34:12.221Z,37.40
2022-11-10T19:36:43.962Z,41.70
2022-11-10T19:39:16.084Z,43.30
2022-11-10T19:41:47.883Z,43.80
2022-11-10T19:44:19.655Z,46.70
2022-11-10T19:46:51.283Z,54.30
2022-11-10T19:49:23.232Z,58.00
2022-11-10T19:51:54.922Z,65.30
2022-11-10T19:54:26.709Z,70.60
2022-11-10T19:56:58.381Z,65.20
2022-11-10T19:59:30.202Z,61.50
2022-11-10T20:02:02.492Z,56.90
2022-11-10T20:04:54.234Z,50.30
2022-11-10T20:07:43.830Z,47.60
2022-11-10T20:10:15.978Z,52.00
2022-11-10T20:12:47.598Z,55.80
2022-11-10T20:15:19.406Z,57.70
2022-11-10T20:17:51.104Z,53.90
2022-11-10T20:20:23.276Z,51.40
2022-11-10T20:22:55.121Z,51.40
2022-11-10T20:25:26.949Z,56.90
2022-11-10T20:28:01.597Z,63.90
2022-11-10T20:30:34.379Z,62.30
2022-11-10T20:33:07.385Z,59.30
2022-11-10T20:35:43.894Z,60.60
2022-11-10T20:38:16.707Z,59.60
2022-11-10T20:40:48.469Z,68.20
2022-11-10T20:43:20.216Z,61.80
2022-11-10T20:45:54.693Z,60.50
2022-11-10T20:48:27.512Z,57.80
2022-11-10T20:50:59.634Z,56.50
2022-11-10T20:53:32.067Z,59.70
2022-11-10T20:56:04.760Z,54.40
2022-11-10T20:58:36.803Z,52.50
2022-11-10T21:01:10.429Z,51.20
2022-11-10T21:03:42.750Z,48.30
2022-11-10T21:06:14.717Z,49.20
2022-11-10T21:08:46.990Z,51.60
2022-11-10T21:11:39.046Z,48.90
2022-11-10T21:14:10.654Z,51.50
2022-11-10T21:16:42.386Z,49.90
2022-11-10T21:19:14.021Z,48.00
2022-11-10T21:21:45.774Z,46.50
2022-11-10T21:24:17.527Z,46.40
2022-11-10T21:26:49.742Z,46.40
2022-11-10T21:29:21.416Z,47.40
2022-11-10T21:31:53.025Z,49.90
2022-11-10T21:34:24.686Z,50.70
2022-11-10T21:36:56.311Z,53.10
2022-11-10T21:39:28.133Z,54.70
2022-11-10T21:41:59.705Z,55.80
2022-11-10T21:44:31.434Z,58.10
2022-11-10T21:47:03.244Z,55.60
2022-11-10T21:49:34.950Z,61.40
2022-11-10T21:52:06.968Z,62.00
2022-11-10T21:54:38.682Z,65.00
2022-11-10T21:57:10.655Z,64.20
2022-11-10T21:59:42.444Z,66.60
2022-11-10T22:02:14.958Z,83.00
2022-11-10T22:04:46.641Z,76.20
2022-11-10T22:07:24.068Z,60.60
2022-11-10T22:10:14.545Z,54.00
2022-11-10T22:13:04.155Z,49.90
2022-11-10T22:15:53.314Z,47.70
2022-11-10T22:18:41.645Z,42.40
2022-11-10T22:21:13.357Z,48.50
2022-11-10T22:24:02.428Z,53.40
2022-11-10T22:26:35.076Z,56.30
2022-11-10T22:29:06.821Z,58.50
2022-11-10T22:31:38.694Z,58.90
2022-11-10T22:34:10.373Z,61.00
2022-11-10T22:36:42.191Z,62.30
2022-11-10T22:39:14.603Z,61.90
2022-11-10T22:42:04.607Z,60.10
2022-11-10T22:44:37.807Z,58.20
2022-11-10T22:47:09.645Z,58.10
2022-11-10T22:49:41.301Z,61.20
2022-11-10T22:52:12.907Z,63.50
2022-11-10T22:54:44.725Z,63.50
2022-11-10T22:57:16.345Z,58.90
2022-11-10T22:59:47.991Z,53.10
2022-11-10T23:02:19.702Z,49.30
2022-11-10T23:04:51.343Z,48.80
2022-11-10T23:07:23.296Z,48.80
2022-11-10T23:09:54.906Z,50.20
2022-11-10T23:12:26.503Z,60.90
2022-11-10T23:14:58.200Z,62.30
2022-11-10T23:17:29.979Z,62.70
2022-11-10T23:20:01.807Z,61.90
2022-11-10T23:22:33.577Z,59.50
2022-11-10T23:25:05.920Z,60.30
2022-11-10T23:27:37.799Z,58.80
2022-11-10T23:30:11.907Z,59.00
2022-11-10T23:32:43.710Z,55.40
2022-11-10T23:35:15.408Z,58.30
2022-11-10T23:37:47.022Z,54.10
2022-11-10T23:40:19.170Z,54.30
2022-11-10T23:42:50.891Z,53.70
2022-11-10T23:45:22.596Z,52.00
2022-11-10T23:47:54.208Z,54.70
2022-11-10T23:50:25.984Z,51.60
2022-11-10T23:52:57.623Z,48.60
2022-11-10T23:55:29.518Z,52.50
2022-11-10T23:58:01.322Z,49.50
